Birmingham-Shuttlesworth International Airport
KBHM : rendu visible

Aérodrome :











RETROUVEZ-NOUS SUR...

 
LOGIN :

S'inscrire | Disclaimer

   EN    FR    IT 

 









Légende :    VFR   VFR Marginal   IFR   IFR Intensif   IFR Très Intensif
Visi : 
Plafond : 
>= 8 km
>= 3000ft
5 à 8 km
1000 à 3000 ft
1500m à 5 km
500 à 1000 ft
800 à 1500m
200 à 500 ft
< 800m
< 200 ft
Symboles :   Orages  Brouillard  Fortes neiges  Fortes précipitations  Vent > 20 kt







- Altitude de l'aérodrome : 650 ft
- Code IATA : BHM


KBHM - Birmingham-Shuttlesworth International

DERNIER METAR :
  • 190753Z 03003KT 10SM SCT250 04/M05 A3035 RMK AO2 SLP276 T00391050

METARs EXPIRÉS :
  • 190653Z 04004KT 10SM CLR 06/M06 A3035 RMK AO2 SLP276 T00561061
  • 190553Z 05003KT 10SM SCT250 07/M07 A3035 RMK AO2 SLP276 T00671067 10106 20067 401720022 50000

TAF KBHM
Valide du 19 à 06h jusqu'au 20 à 06h UTC


190520Z 1906/2006 02008KT P6SM OVC250
FM191500 05009KT P6SM SCT250
FM200000 05002KT P6SM SKC
FIR KZTL / Amérique du Nord



MET'MAP, la Météo Aéronautique d'un coup d'oeil ! - Copyright ORBIFLY Décembre 2007 - Disclaimer

ORBIFLY MET'MAP TEAM :

Programmation & Développement : Alexandra Zaïnal
Conception & Développement : Baudouin d'Aumeries
Co-Programmation & Développement : Marc-Olivier Méhu
Soutien technique & logistique : Manuel Goepfert

Contact : metmap@orbifly.com




SOURCES & CREDITS :

   NOAA       Earth
Advisory